Flight Track Log - Related Links

Times and Time Zones

All times are in EDT time to prevent confusion due to time zone crossing. See the SKW2685 flight status page for this flight to view local times or setup timezone preferences in your user account.

Time Position Orientation Groundspeed Altitude Reporting Facility
EDT Latitude Longitude Course Direction KTS MPH feet Rate Location/Type
Mon 07:10:16 PM 33.9500 -118.4500 195° South 141 162 1,400  Level Southern California TRACON
Mon 07:10:31 PM 33.9450 -118.4517 195° South 152 175 1,500 1,558 Climbing Los Angeles Center
Mon 07:11:33 PM 33.9342 -118.5231 260° West 208 239 3,400 2,032 Climbing Los Angeles Center
Mon 07:12:35 PM 33.9189 -118.6103 258° West 262 302 5,700 2,468 Climbing Los Angeles Center
Mon 07:13:37 PM 33.8992 -118.7086 256° West 281 323 8,500 2,488 Climbing Los Angeles Center
Mon 07:14:38 PM 33.8914 -118.8044 264° West 291 335 10,800 2,146 Climbing Los Angeles Center
Mon 07:15:40 PM 33.8950 -118.9017 273° West 294 338 12,900 1,597 Climbing Los Angeles Center
Mon 07:16:42 PM 33.9539 -118.9831 311° West 323 372 14,100 1,258 Climbing Los Angeles Center
Mon 07:17:44 PM 34.0150 -119.0700 310° West 339 390 15,500 1,355 Climbing Los Angeles Center
Mon 07:18:46 PM 34.0786 -119.1594 311° West 350 403 16,900 1,366 Climbing Los Angeles Center
Mon 07:19:47 PM 34.1425 -119.2497 311° West 356 410 18,300 1,512 Climbing Los Angeles Center
Mon 07:20:49 PM 34.2183 -119.3583 310° West 355 409 20,000 1,403 Climbing Los Angeles Center
Mon 07:21:51 PM 34.2833 -119.4489 311° West 356 410 21,200 1,065 Climbing Los Angeles Center
Mon 07:22:53 PM 34.3478 -119.5425 310° West 362 417 22,200 971 Climbing Los Angeles Center
Mon 07:24:07 PM 34.4278 -119.6558 311° West 370 426 23,400 971 Climbing Los Angeles Center
Mon 07:25:09 PM 34.4931 -119.7522 309° West 371 427 24,400 968 Climbing Los Angeles Center
Mon 07:26:11 PM 34.5781 -119.8300 323° Northwest 386 444 25,400 774 Climbing Los Angeles Center
Mon 07:27:13 PM 34.6700 -119.9031 327° Northwest 383 441 26,000 293 Climbing Los Angeles Center
Mon 07:28:14 PM 34.7625 -119.9808 325° Northwest 398 458 26,000  Level Los Angeles Center
Mon 07:29:16 PM 34.8789 -120.0781 326° Northwest 420 483 26,000  Level Los Angeles Center
Mon 07:30:18 PM 34.9750 -120.1572 326° Northwest 433 498 26,000  Level Los Angeles Center
Mon 07:31:20 PM 35.0756 -120.2411 326° Northwest 442 509 26,000  Level Los Angeles Center
Mon 07:32:22 PM 35.1764 -120.3250 326° Northwest 445 512 26,000  Level Los Angeles Center
Mon 07:33:24 PM 35.2781 -120.4103 326° Northwest 448 516 26,000  Level Los Angeles Center
Mon 07:34:25 PM 35.4000 -120.5161 325° Northwest 454 522 26,000  Level Los Angeles Center
Mon 07:35:27 PM 35.5025 -120.6019 326° Northwest 450 518 26,000  Level Los Angeles Center
Mon 07:36:29 PM 35.6056 -120.6906 325° Northwest 452 520 26,000  Level Los Angeles Center
Mon 07:36:51 PM 35.6417 -120.7197 327° Northwest 439 505 26,000  Level Oakland Center
Mon 07:37:52 PM 35.7453 -120.8067 326° Northwest 444 511 26,000  Level Oakland Center
Mon 07:38:53 PM 35.8481 -120.8942 325° Northwest 445 512 26,000  Level Oakland Center
Mon 07:39:54 PM 35.9506 -120.9817 325° Northwest 445 512 26,000  Level Oakland Center
Mon 07:40:56 PM 36.0494 -121.0722 323° Northwest 440 506 26,000 -195 Level Oakland Center
Mon 07:41:57 PM 36.1736 -121.1731 327° Northwest 438 504 25,600 -1,230 Descending Oakland Center
Mon 07:42:58 PM 36.2694 -121.2583 324° Northwest 419 482 23,500 -2,213 Descending Oakland Center
Mon 07:43:59 PM 36.3636 -121.3406 325° Northwest 411 473 21,100 -2,341 Descending Oakland Center
Mon 07:45:01 PM 36.4533 -121.4233 323° Northwest 401 461 18,700 -2,244 Descending Oakland Center
Mon 07:46:02 PM 36.5514 -121.4875 332° Northwest 389 448 16,500 -2,262 Descending Oakland Center
Mon 07:47:03 PM 36.6503 -121.5219 344° North 360 414 14,100 -2,146 Descending Oakland Center
Mon 07:48:05 PM 36.7414 -121.5533 345° North 333 383 12,100 -1,659 Descending Oakland Center
Mon 07:49:06 PM 36.8222 -121.5822 344° North 293 337 10,700 -1,574 Descending Oakland Center
Mon 07:50:07 PM 36.9094 -121.6189 341° North 283 326 8,900 -1,415 Descending Oakland Center
Mon 07:51:09 PM 36.9861 -121.6461 344° North 285 328 7,800 -1,171 Descending Oakland Center
Mon 07:52:10 PM 37.0572 -121.6736 343° North 272 313 6,500 -1,131 Descending Oakland Center
Mon 07:53:11 PM 37.1264 -121.6969 345° North 259 298 5,500 -780 Descending Oakland Center
Mon 07:54:13 PM 37.1797 -121.7278 335° Northwest 233 268 4,900 -780 Descending Oakland Center
Mon 07:55:14 PM 37.2169 -121.7722 316° Northwest 207 238 3,900 -1,063 Descending Oakland Center
Mon 07:56:51 PM 37.2833 -121.8500 317° Northwest 177 204 2,100 -1,073 Descending Northern Cal TRACON
Mon 07:57:17 PM 37.2964 -121.8594 330° Northwest 190 219 1,700 -828 Descending Oakland Center
Mon 07:58:18 PM 37.3269 -121.8936 318° Northwest 166 191 900 -780 Descending Oakland Center
Mon 07:59:20 PM 37.3581 -121.9269 320° Northwest 137 158 100 -774 Descending Oakland Center
Mon 08:01:00 PM 37.3500 -121.9167 North  Level FlightAware Approximate

Login

Don't have an account? Register now (free) for customized features, flight alerts, and more!